sensor_id;sensor_type;location;lat;lon;timestamp;P1;durP1;ratioP1;P2;durP2;ratioP2
69979;SDS011;57318;56.232;43.944;2022-08-20T00:00:06;6.77;;;3.83;;
69979;SDS011;57318;56.232;43.944;2022-08-20T00:02:41;9.75;;;3.88;;
69979;SDS011;57318;56.232;43.944;2022-08-20T00:05:10;4.70;;;3.63;;
69979;SDS011;57318;56.232;43.944;2022-08-20T00:10:03;5.88;;;3.58;;
69979;SDS011;57318;56.232;43.944;2022-08-20T00:12:31;6.00;;;3.45;;
69979;SDS011;57318;56.232;43.944;2022-08-20T00:14:57;6.15;;;3.47;;
69979;SDS011;57318;56.232;43.944;2022-08-20T00:17:23;7.50;;;3.67;;
69979;SDS011;57318;56.232;43.944;2022-08-20T00:19:48;4.97;;;3.97;;
69979;SDS011;57318;56.232;43.944;2022-08-20T00:22:14;6.67;;;3.57;;
69979;SDS011;57318;56.232;43.944;2022-08-20T00:24:40;8.20;;;4.00;;
69979;SDS011;57318;56.232;43.944;2022-08-20T00:27:05;7.60;;;3.77;;
69979;SDS011;57318;56.232;43.944;2022-08-20T00:29:31;14.07;;;4.10;;
69979;SDS011;57318;56.232;43.944;2022-08-20T00:31:57;9.90;;;3.73;;
69979;SDS011;57318;56.232;43.944;2022-08-20T00:34:23;6.03;;;3.80;;
69979;SDS011;57318;56.232;43.944;2022-08-20T00:36:49;8.00;;;4.07;;
69979;SDS011;57318;56.232;43.944;2022-08-20T00:39:15;6.57;;;3.60;;
69979;SDS011;57318;56.232;43.944;2022-08-20T00:41:40;6.17;;;4.30;;
69979;SDS011;57318;56.232;43.944;2022-08-20T00:46:35;6.82;;;4.18;;
69979;SDS011;57318;56.232;43.944;2022-08-20T00:49:03;6.25;;;3.60;;
69979;SDS011;57318;56.232;43.944;2022-08-20T00:51:42;8.63;;;4.07;;
69979;SDS011;57318;56.232;43.944;2022-08-20T00:54:19;6.45;;;3.78;;
69979;SDS011;57318;56.232;43.944;2022-08-20T00:56:47;7.72;;;3.85;;
69979;SDS011;57318;56.232;43.944;2022-08-20T00:59:18;6.35;;;3.90;;
69979;SDS011;57318;56.232;43.944;2022-08-20T01:01:47;5.75;;;3.88;;
69979;SDS011;57318;56.232;43.944;2022-08-20T01:04:13;6.20;;;3.92;;
69979;SDS011;57318;56.232;43.944;2022-08-20T01:06:39;6.97;;;4.00;;
69979;SDS011;57318;56.232;43.944;2022-08-20T01:09:06;8.27;;;4.47;;
69979;SDS011;57318;56.232;43.944;2022-08-20T01:11:33;7.93;;;4.28;;
69979;SDS011;57318;56.232;43.944;2022-08-20T01:14:08;6.43;;;3.80;;
69979;SDS011;57318;56.232;43.944;2022-08-20T01:16:57;14.63;;;3.88;;
69979;SDS011;57318;56.232;43.944;2022-08-20T01:19:28;7.93;;;3.60;;
69979;SDS011;57318;56.232;43.944;2022-08-20T01:21:58;6.28;;;3.67;;
69979;SDS011;57318;56.232;43.944;2022-08-20T01:24:33;11.60;;;3.90;;
69979;SDS011;57318;56.232;43.944;2022-08-20T01:27:02;9.68;;;4.30;;
69979;SDS011;57318;56.232;43.944;2022-08-20T01:29:33;7.50;;;4.00;;
69979;SDS011;57318;56.232;43.944;2022-08-20T01:32:01;8.20;;;4.28;;
69979;SDS011;57318;56.232;43.944;2022-08-20T01:34:28;7.55;;;3.70;;
69979;SDS011;57318;56.232;43.944;2022-08-20T01:36:54;9.70;;;4.43;;
69979;SDS011;57318;56.232;43.944;2022-08-20T01:39:22;6.63;;;4.00;;
69979;SDS011;57318;56.232;43.944;2022-08-20T01:44:22;7.50;;;3.97;;
69979;SDS011;57318;56.232;43.944;2022-08-20T01:46:49;7.30;;;4.30;;
69979;SDS011;57318;56.232;43.944;2022-08-20T01:49:21;6.45;;;3.65;;
69979;SDS011;57318;56.232;43.944;2022-08-20T01:51:51;9.23;;;4.07;;
69979;SDS011;57318;56.232;43.944;2022-08-20T01:54:19;7.10;;;3.92;;
69979;SDS011;57318;56.232;43.944;2022-08-20T01:59:36;10.10;;;4.18;;
69979;SDS011;57318;56.232;43.944;2022-08-20T02:02:02;9.20;;;4.28;;
69979;SDS011;57318;56.232;43.944;2022-08-20T02:04:28;8.35;;;4.47;;
69979;SDS011;57318;56.232;43.944;2022-08-20T02:06:57;9.00;;;3.90;;
69979;SDS011;57318;56.232;43.944;2022-08-20T02:09:25;6.80;;;3.70;;
69979;SDS011;57318;56.232;43.944;2022-08-20T02:11:55;7.78;;;3.92;;
69979;SDS011;57318;56.232;43.944;2022-08-20T02:14:22;9.60;;;4.10;;
69979;SDS011;57318;56.232;43.944;2022-08-20T02:16:48;7.28;;;4.47;;
69979;SDS011;57318;56.232;43.944;2022-08-20T02:19:36;6.93;;;3.77;;
69979;SDS011;57318;56.232;43.944;2022-08-20T02:22:10;5.75;;;3.75;;
69979;SDS011;57318;56.232;43.944;2022-08-20T02:27:08;6.45;;;4.13;;
69979;SDS011;57318;56.232;43.944;2022-08-20T02:29:33;7.47;;;4.27;;
69979;SDS011;57318;56.232;43.944;2022-08-20T02:31:59;9.67;;;3.87;;
69979;SDS011;57318;56.232;43.944;2022-08-20T02:34:25;7.33;;;4.30;;
69979;SDS011;57318;56.232;43.944;2022-08-20T02:36:50;5.93;;;3.90;;
69979;SDS011;57318;56.232;43.944;2022-08-20T02:39:16;8.20;;;3.90;;
69979;SDS011;57318;56.232;43.944;2022-08-20T02:41:42;10.53;;;4.17;;
69979;SDS011;57318;56.232;43.944;2022-08-20T02:44:08;12.83;;;4.40;;
69979;SDS011;57318;56.232;43.944;2022-08-20T02:46:34;6.83;;;3.97;;
69979;SDS011;57318;56.232;43.944;2022-08-20T02:48:59;6.83;;;4.27;;
69979;SDS011;57318;56.232;43.944;2022-08-20T02:51:25;7.77;;;3.80;;
69979;SDS011;57318;56.232;43.944;2022-08-20T02:53:52;8.23;;;4.93;;
69979;SDS011;57318;56.232;43.944;2022-08-20T02:56:18;11.73;;;4.50;;
69979;SDS011;57318;56.232;43.944;2022-08-20T02:58:44;6.20;;;3.97;;
69979;SDS011;57318;56.232;43.944;2022-08-20T03:01:11;9.93;;;4.50;;
69979;SDS011;57318;56.232;43.944;2022-08-20T03:03:40;11.38;;;4.90;;
69979;SDS011;57318;56.232;43.944;2022-08-20T03:08:32;10.65;;;5.57;;
69979;SDS011;57318;56.232;43.944;2022-08-20T03:10:58;7.90;;;5.30;;
69979;SDS011;57318;56.232;43.944;2022-08-20T03:13:24;8.93;;;5.82;;
69979;SDS011;57318;56.232;43.944;2022-08-20T03:15:51;12.50;;;6.28;;
69979;SDS011;57318;56.232;43.944;2022-08-20T03:18:20;12.60;;;6.60;;
69979;SDS011;57318;56.232;43.944;2022-08-20T03:20:47;15.27;;;5.90;;
69979;SDS011;57318;56.232;43.944;2022-08-20T03:23:14;14.57;;;7.00;;
69979;SDS011;57318;56.232;43.944;2022-08-20T03:25:41;15.50;;;7.82;;
69979;SDS011;57318;56.232;43.944;2022-08-20T03:28:06;12.57;;;6.43;;
69979;SDS011;57318;56.232;43.944;2022-08-20T03:30:33;12.93;;;6.85;;
69979;SDS011;57318;56.232;43.944;2022-08-20T03:32:59;16.83;;;5.43;;
69979;SDS011;57318;56.232;43.944;2022-08-20T03:35:25;10.93;;;5.93;;
69979;SDS011;57318;56.232;43.944;2022-08-20T03:37:53;10.18;;;5.47;;
69979;SDS011;57318;56.232;43.944;2022-08-20T03:40:24;7.50;;;5.00;;
69979;SDS011;57318;56.232;43.944;2022-08-20T03:42:53;7.38;;;4.60;;
69979;SDS011;57318;56.232;43.944;2022-08-20T03:45:20;5.22;;;4.35;;
69979;SDS011;57318;56.232;43.944;2022-08-20T03:47:47;6.68;;;4.15;;
69979;SDS011;57318;56.232;43.944;2022-08-20T03:50:14;7.78;;;4.07;;
69979;SDS011;57318;56.232;43.944;2022-08-20T03:52:41;8.65;;;3.90;;
69979;SDS011;57318;56.232;43.944;2022-08-20T03:55:08;7.47;;;3.70;;
69979;SDS011;57318;56.232;43.944;2022-08-20T03:57:34;9.18;;;4.47;;
69979;SDS011;57318;56.232;43.944;2022-08-20T04:00:00;9.57;;;4.07;;
69979;SDS011;57318;56.232;43.944;2022-08-20T04:02:28;7.07;;;3.72;;
69979;SDS011;57318;56.232;43.944;2022-08-20T04:04:54;7.97;;;4.07;;
69979;SDS011;57318;56.232;43.944;2022-08-20T04:07:22;5.63;;;3.90;;
69979;SDS011;57318;56.232;43.944;2022-08-20T04:09:52;10.20;;;3.97;;
69979;SDS011;57318;56.232;43.944;2022-08-20T04:12:20;7.60;;;4.03;;
69979;SDS011;57318;56.232;43.944;2022-08-20T04:14:47;7.75;;;3.90;;
69979;SDS011;57318;56.232;43.944;2022-08-20T04:17:14;5.50;;;3.55;;
69979;SDS011;57318;56.232;43.944;2022-08-20T04:19:41;6.00;;;4.25;;
69979;SDS011;57318;56.232;43.944;2022-08-20T04:22:08;6.50;;;3.45;;
69979;SDS011;57318;56.232;43.944;2022-08-20T04:24:38;7.20;;;4.00;;
69979;SDS011;57318;56.232;43.944;2022-08-20T04:27:05;7.63;;;3.90;;
69979;SDS011;57318;56.232;43.944;2022-08-20T04:29:33;6.45;;;4.05;;
69979;SDS011;57318;56.232;43.944;2022-08-20T04:32:01;7.43;;;3.60;;
69979;SDS011;57318;56.232;43.944;2022-08-20T04:34:30;7.38;;;4.20;;
69979;SDS011;57318;56.232;43.944;2022-08-20T04:36:56;7.68;;;3.85;;
69979;SDS011;57318;56.232;43.944;2022-08-20T04:39:21;10.47;;;4.13;;
69979;SDS011;57318;56.232;43.944;2022-08-20T04:41:47;9.75;;;4.07;;
69979;SDS011;57318;56.232;43.944;2022-08-20T04:44:13;9.77;;;4.00;;
69979;SDS011;57318;56.232;43.944;2022-08-20T04:46:39;9.37;;;4.40;;
69979;SDS011;57318;56.232;43.944;2022-08-20T04:49:06;7.75;;;3.75;;
69979;SDS011;57318;56.232;43.944;2022-08-20T04:51:32;5.50;;;3.60;;
69979;SDS011;57318;56.232;43.944;2022-08-20T04:53:58;4.72;;;3.30;;
69979;SDS011;57318;56.232;43.944;2022-08-20T04:56:27;8.75;;;4.00;;
69979;SDS011;57318;56.232;43.944;2022-08-20T04:58:56;7.15;;;3.70;;
69979;SDS011;57318;56.232;43.944;2022-08-20T05:01:24;4.95;;;3.70;;
69979;SDS011;57318;56.232;43.944;2022-08-20T05:03:50;4.63;;;3.60;;
69979;SDS011;57318;56.232;43.944;2022-08-20T05:06:21;9.93;;;4.13;;
69979;SDS011;57318;56.232;43.944;2022-08-20T05:08:49;6.47;;;3.63;;
69979;SDS011;57318;56.232;43.944;2022-08-20T05:11:15;8.93;;;4.20;;
69979;SDS011;57318;56.232;43.944;2022-08-20T05:13:40;5.10;;;3.67;;
69979;SDS011;57318;56.232;43.944;2022-08-20T05:16:07;7.68;;;3.47;;
69979;SDS011;57318;56.232;43.944;2022-08-20T05:18:33;8.48;;;3.78;;
69979;SDS011;57318;56.232;43.944;2022-08-20T05:21:00;6.85;;;3.83;;
69979;SDS011;57318;56.232;43.944;2022-08-20T05:23:31;9.38;;;4.03;;
69979;SDS011;57318;56.232;43.944;2022-08-20T05:26:01;13.80;;;3.72;;
69979;SDS011;57318;56.232;43.944;2022-08-20T05:28:33;9.73;;;3.53;;
69979;SDS011;57318;56.232;43.944;2022-08-20T05:31:00;6.97;;;3.50;;
69979;SDS011;57318;56.232;43.944;2022-08-20T05:33:26;6.97;;;3.72;;
69979;SDS011;57318;56.232;43.944;2022-08-20T05:35:54;3.85;;;3.30;;
69979;SDS011;57318;56.232;43.944;2022-08-20T05:40:49;4.65;;;3.70;;
69979;SDS011;57318;56.232;43.944;2022-08-20T05:43:14;4.78;;;3.45;;
69979;SDS011;57318;56.232;43.944;2022-08-20T05:45:41;5.43;;;3.50;;
69979;SDS011;57318;56.232;43.944;2022-08-20T05:48:10;6.53;;;3.60;;
69979;SDS011;57318;56.232;43.944;2022-08-20T05:50:40;6.03;;;3.60;;
69979;SDS011;57318;56.232;43.944;2022-08-20T05:53:07;6.35;;;3.10;;
69979;SDS011;57318;56.232;43.944;2022-08-20T05:55:34;7.35;;;3.42;;
69979;SDS011;57318;56.232;43.944;2022-08-20T05:58:03;9.30;;;3.65;;
69979;SDS011;57318;56.232;43.944;2022-08-20T06:00:30;10.35;;;3.47;;
69979;SDS011;57318;56.232;43.944;2022-08-20T06:02:57;7.82;;;3.88;;
69979;SDS011;57318;56.232;43.944;2022-08-20T06:05:42;6.95;;;3.83;;
69979;SDS011;57318;56.232;43.944;2022-08-20T06:08:09;9.93;;;3.45;;
69979;SDS011;57318;56.232;43.944;2022-08-20T06:10:36;16.83;;;4.05;;
69979;SDS011;57318;56.232;43.944;2022-08-20T06:15:28;8.90;;;3.60;;
69979;SDS011;57318;56.232;43.944;2022-08-20T06:17:55;9.25;;;3.50;;
69979;SDS011;57318;56.232;43.944;2022-08-20T06:20:21;7.30;;;3.10;;
69979;SDS011;57318;56.232;43.944;2022-08-20T06:22:47;11.13;;;3.17;;
69979;SDS011;57318;56.232;43.944;2022-08-20T06:25:13;11.32;;;3.03;;
69979;SDS011;57318;56.232;43.944;2022-08-20T06:27:39;4.23;;;2.63;;
69979;SDS011;57318;56.232;43.944;2022-08-20T06:30:07;8.00;;;3.20;;
69979;SDS011;57318;56.232;43.944;2022-08-20T06:32:33;3.50;;;2.60;;
69979;SDS011;57318;56.232;43.944;2022-08-20T06:34:59;8.43;;;2.90;;
69979;SDS011;57318;56.232;43.944;2022-08-20T06:37:27;8.70;;;3.28;;
69979;SDS011;57318;56.232;43.944;2022-08-20T06:39:53;9.10;;;3.88;;
69979;SDS011;57318;56.232;43.944;2022-08-20T06:42:19;10.52;;;3.72;;
69979;SDS011;57318;56.232;43.944;2022-08-20T06:47:13;5.40;;;3.40;;
69979;SDS011;57318;56.232;43.944;2022-08-20T06:49:40;8.05;;;3.30;;
69979;SDS011;57318;56.232;43.944;2022-08-20T06:54:32;5.68;;;2.97;;
69979;SDS011;57318;56.232;43.944;2022-08-20T06:56:58;6.03;;;3.28;;
69979;SDS011;57318;56.232;43.944;2022-08-20T06:59:25;7.10;;;3.70;;
69979;SDS011;57318;56.232;43.944;2022-08-20T07:01:50;8.40;;;3.42;;
69979;SDS011;57318;56.232;43.944;2022-08-20T07:04:21;6.32;;;3.38;;
69979;SDS011;57318;56.232;43.944;2022-08-20T07:06:51;8.68;;;3.42;;
69979;SDS011;57318;56.232;43.944;2022-08-20T07:09:18;6.20;;;3.42;;
69979;SDS011;57318;56.232;43.944;2022-08-20T07:11:46;8.10;;;3.60;;
69979;SDS011;57318;56.232;43.944;2022-08-20T07:14:12;7.97;;;3.30;;
69979;SDS011;57318;56.232;43.944;2022-08-20T07:16:38;7.72;;;3.67;;
69979;SDS011;57318;56.232;43.944;2022-08-20T07:19:04;7.05;;;4.03;;
69979;SDS011;57318;56.232;43.944;2022-08-20T07:21:30;6.93;;;3.88;;
69979;SDS011;57318;56.232;43.944;2022-08-20T07:23:56;8.18;;;3.42;;
69979;SDS011;57318;56.232;43.944;2022-08-20T07:26:22;10.68;;;4.00;;
69979;SDS011;57318;56.232;43.944;2022-08-20T07:28:48;8.18;;;3.63;;
69979;SDS011;57318;56.232;43.944;2022-08-20T07:31:14;6.78;;;2.90;;
69979;SDS011;57318;56.232;43.944;2022-08-20T07:33:59;9.77;;;3.63;;
69979;SDS011;57318;56.232;43.944;2022-08-20T07:36:25;7.35;;;3.38;;
69979;SDS011;57318;56.232;43.944;2022-08-20T07:38:51;10.32;;;3.33;;
69979;SDS011;57318;56.232;43.944;2022-08-20T07:41:17;8.07;;;3.25;;
69979;SDS011;57318;56.232;43.944;2022-08-20T07:43:44;7.28;;;2.95;;
69979;SDS011;57318;56.232;43.944;2022-08-20T07:46:11;6.45;;;3.25;;
69979;SDS011;57318;56.232;43.944;2022-08-20T07:48:39;6.40;;;3.03;;
69979;SDS011;57318;56.232;43.944;2022-08-20T07:51:10;7.60;;;3.38;;
69979;SDS011;57318;56.232;43.944;2022-08-20T07:53:36;16.48;;;3.45;;
69979;SDS011;57318;56.232;43.944;2022-08-20T07:56:05;7.78;;;3.22;;
69979;SDS011;57318;56.232;43.944;2022-08-20T07:58:34;5.32;;;2.88;;
69979;SDS011;57318;56.232;43.944;2022-08-20T08:01:02;10.23;;;3.30;;
69979;SDS011;57318;56.232;43.944;2022-08-20T08:03:29;7.35;;;3.00;;
69979;SDS011;57318;56.232;43.944;2022-08-20T08:05:55;6.20;;;2.65;;
69979;SDS011;57318;56.232;43.944;2022-08-20T08:08:22;10.88;;;2.88;;
69979;SDS011;57318;56.232;43.944;2022-08-20T08:10:54;6.70;;;2.88;;
69979;SDS011;57318;56.232;43.944;2022-08-20T08:13:24;5.32;;;2.88;;
69979;SDS011;57318;56.232;43.944;2022-08-20T08:15:51;9.90;;;3.03;;
69979;SDS011;57318;56.232;43.944;2022-08-20T08:18:19;7.07;;;2.90;;
69979;SDS011;57318;56.232;43.944;2022-08-20T08:20:48;7.65;;;2.70;;
69979;SDS011;57318;56.232;43.944;2022-08-20T08:23:18;7.32;;;3.20;;
69979;SDS011;57318;56.232;43.944;2022-08-20T08:25:47;5.22;;;2.78;;
69979;SDS011;57318;56.232;43.944;2022-08-20T08:28:13;9.30;;;3.10;;
69979;SDS011;57318;56.232;43.944;2022-08-20T08:30:40;8.05;;;3.17;;
69979;SDS011;57318;56.232;43.944;2022-08-20T08:33:16;5.32;;;3.10;;
69979;SDS011;57318;56.232;43.944;2022-08-20T08:35:52;6.63;;;2.53;;
69979;SDS011;57318;56.232;43.944;2022-08-20T08:38:20;9.10;;;2.70;;
69979;SDS011;57318;56.232;43.944;2022-08-20T08:40:48;6.30;;;2.90;;
69979;SDS011;57318;56.232;43.944;2022-08-20T08:43:15;6.65;;;2.83;;
69979;SDS011;57318;56.232;43.944;2022-08-20T08:45:44;7.75;;;2.95;;
69979;SDS011;57318;56.232;43.944;2022-08-20T08:48:20;6.45;;;2.97;;
69979;SDS011;57318;56.232;43.944;2022-08-20T08:50:52;8.27;;;3.17;;
69979;SDS011;57318;56.232;43.944;2022-08-20T08:53:26;6.95;;;2.88;;
69979;SDS011;57318;56.232;43.944;2022-08-20T08:55:58;5.07;;;2.60;;
69979;SDS011;57318;56.232;43.944;2022-08-20T08:58:25;8.82;;;2.97;;
69979;SDS011;57318;56.232;43.944;2022-08-20T09:00:52;10.35;;;3.15;;
69979;SDS011;57318;56.232;43.944;2022-08-20T09:03:21;7.78;;;2.80;;
69979;SDS011;57318;56.232;43.944;2022-08-20T09:05:52;4.03;;;2.78;;
69979;SDS011;57318;56.232;43.944;2022-08-20T09:08:22;8.68;;;2.90;;
69979;SDS011;57318;56.232;43.944;2022-08-20T09:10:51;5.35;;;3.10;;
69979;SDS011;57318;56.232;43.944;2022-08-20T09:13:17;4.90;;;3.10;;
69979;SDS011;57318;56.232;43.944;2022-08-20T09:15:43;5.72;;;4.05;;
69979;SDS011;57318;56.232;43.944;2022-08-20T09:18:09;6.63;;;3.17;;
69979;SDS011;57318;56.232;43.944;2022-08-20T09:20:34;5.32;;;2.88;;
69979;SDS011;57318;56.232;43.944;2022-08-20T09:23:00;6.38;;;3.03;;
69979;SDS011;57318;56.232;43.944;2022-08-20T09:25:28;7.93;;;2.88;;
69979;SDS011;57318;56.232;43.944;2022-08-20T09:27:54;5.05;;;3.00;;
69979;SDS011;57318;56.232;43.944;2022-08-20T09:30:20;3.95;;;3.20;;
69979;SDS011;57318;56.232;43.944;2022-08-20T09:32:45;5.97;;;3.53;;
69979;SDS011;57318;56.232;43.944;2022-08-20T09:35:11;4.60;;;3.35;;
69979;SDS011;57318;56.232;43.944;2022-08-20T09:37:37;5.68;;;3.17;;
69979;SDS011;57318;56.232;43.944;2022-08-20T09:40:04;8.00;;;3.10;;
69979;SDS011;57318;56.232;43.944;2022-08-20T09:42:33;3.75;;;2.70;;
69979;SDS011;57318;56.232;43.944;2022-08-20T09:45:00;9.93;;;3.13;;
69979;SDS011;57318;56.232;43.944;2022-08-20T09:47:26;5.85;;;3.08;;
69979;SDS011;57318;56.232;43.944;2022-08-20T09:49:52;6.13;;;3.10;;
69979;SDS011;57318;56.232;43.944;2022-08-20T09:52:27;5.57;;;2.95;;
69979;SDS011;57318;56.232;43.944;2022-08-20T09:55:00;7.15;;;2.95;;
69979;SDS011;57318;56.232;43.944;2022-08-20T09:57:29;10.30;;;2.90;;
69979;SDS011;57318;56.232;43.944;2022-08-20T09:59:57;5.43;;;2.75;;
69979;SDS011;57318;56.232;43.944;2022-08-20T10:02:32;5.93;;;2.80;;
69979;SDS011;57318;56.232;43.944;2022-08-20T10:04:58;4.47;;;2.83;;
69979;SDS011;57318;56.232;43.944;2022-08-20T10:07:23;5.38;;;3.08;;
69979;SDS011;57318;56.232;43.944;2022-08-20T10:09:49;4.32;;;2.85;;
69979;SDS011;57318;56.232;43.944;2022-08-20T10:12:15;4.10;;;2.92;;
69979;SDS011;57318;56.232;43.944;2022-08-20T10:14:40;4.75;;;2.85;;
69979;SDS011;57318;56.232;43.944;2022-08-20T10:17:06;3.92;;;3.00;;
69979;SDS011;57318;56.232;43.944;2022-08-20T10:19:32;6.55;;;3.30;;
69979;SDS011;57318;56.232;43.944;2022-08-20T10:21:58;7.28;;;2.97;;
69979;SDS011;57318;56.232;43.944;2022-08-20T10:24:24;4.70;;;3.17;;
69979;SDS011;57318;56.232;43.944;2022-08-20T10:26:53;11.25;;;3.90;;
69979;SDS011;57318;56.232;43.944;2022-08-20T10:29:20;5.88;;;3.00;;
69979;SDS011;57318;56.232;43.944;2022-08-20T10:31:45;8.98;;;3.15;;
69979;SDS011;57318;56.232;43.944;2022-08-20T10:34:11;5.57;;;2.90;;
69979;SDS011;57318;56.232;43.944;2022-08-20T10:36:37;6.13;;;2.95;;
69979;SDS011;57318;56.232;43.944;2022-08-20T10:39:02;6.07;;;2.90;;
69979;SDS011;57318;56.232;43.944;2022-08-20T10:41:28;6.10;;;2.85;;
69979;SDS011;57318;56.232;43.944;2022-08-20T10:43:54;5.90;;;2.97;;
69979;SDS011;57318;56.232;43.944;2022-08-20T10:46:20;11.50;;;3.30;;
69979;SDS011;57318;56.232;43.944;2022-08-20T10:48:45;6.70;;;3.30;;
69979;SDS011;57318;56.232;43.944;2022-08-20T10:51:11;6.32;;;3.30;;
69979;SDS011;57318;56.232;43.944;2022-08-20T10:53:37;6.43;;;3.05;;
69979;SDS011;57318;56.232;43.944;2022-08-20T10:56:03;7.75;;;3.08;;
69979;SDS011;57318;56.232;43.944;2022-08-20T10:58:29;7.63;;;3.33;;
69979;SDS011;57318;56.232;43.944;2022-08-20T11:00:55;5.53;;;3.75;;
69979;SDS011;57318;56.232;43.944;2022-08-20T11:03:20;5.30;;;3.53;;
69979;SDS011;57318;56.232;43.944;2022-08-20T11:05:46;8.95;;;3.30;;
69979;SDS011;57318;56.232;43.944;2022-08-20T11:08:12;7.38;;;2.72;;
69979;SDS011;57318;56.232;43.944;2022-08-20T11:10:39;5.07;;;2.90;;
69979;SDS011;57318;56.232;43.944;2022-08-20T11:13:05;13.80;;;3.92;;
69979;SDS011;57318;56.232;43.944;2022-08-20T11:15:33;6.25;;;3.30;;
69979;SDS011;57318;56.232;43.944;2022-08-20T11:18:01;4.82;;;2.80;;
69979;SDS011;57318;56.232;43.944;2022-08-20T11:20:27;4.05;;;2.90;;
69979;SDS011;57318;56.232;43.944;2022-08-20T11:22:55;11.23;;;3.55;;
69979;SDS011;57318;56.232;43.944;2022-08-20T11:25:21;9.48;;;3.42;;
69979;SDS011;57318;56.232;43.944;2022-08-20T11:27:47;5.95;;;3.13;;
69979;SDS011;57318;56.232;43.944;2022-08-20T11:30:15;4.80;;;3.00;;
69979;SDS011;57318;56.232;43.944;2022-08-20T11:33:02;6.53;;;2.70;;
69979;SDS011;57318;56.232;43.944;2022-08-20T11:35:29;8.20;;;2.78;;
69979;SDS011;57318;56.232;43.944;2022-08-20T11:37:57;3.53;;;3.13;;
69979;SDS011;57318;56.232;43.944;2022-08-20T11:40:23;5.18;;;2.95;;
69979;SDS011;57318;56.232;43.944;2022-08-20T11:42:50;7.97;;;2.92;;
69979;SDS011;57318;56.232;43.944;2022-08-20T11:45:16;5.93;;;2.85;;
69979;SDS011;57318;56.232;43.944;2022-08-20T11:47:42;7.00;;;2.92;;
69979;SDS011;57318;56.232;43.944;2022-08-20T11:50:10;11.88;;;2.95;;
69979;SDS011;57318;56.232;43.944;2022-08-20T11:52:41;6.05;;;3.00;;
69979;SDS011;57318;56.232;43.944;2022-08-20T11:55:08;4.95;;;2.88;;
69979;SDS011;57318;56.232;43.944;2022-08-20T11:57:36;7.22;;;3.15;;
69979;SDS011;57318;56.232;43.944;2022-08-20T12:00:07;6.40;;;2.78;;
69979;SDS011;57318;56.232;43.944;2022-08-20T12:02:37;6.28;;;2.70;;
69979;SDS011;57318;56.232;43.944;2022-08-20T12:05:03;6.05;;;3.03;;
69979;SDS011;57318;56.232;43.944;2022-08-20T12:07:29;5.53;;;2.90;;
69979;SDS011;57318;56.232;43.944;2022-08-20T12:09:55;6.00;;;3.08;;
69979;SDS011;57318;56.232;43.944;2022-08-20T12:12:21;14.40;;;3.78;;
69979;SDS011;57318;56.232;43.944;2022-08-20T12:14:51;62.50;;;8.25;;
69979;SDS011;57318;56.232;43.944;2022-08-20T12:17:22;62.70;;;9.07;;
69979;SDS011;57318;56.232;43.944;2022-08-20T12:19:51;26.17;;;5.13;;
69979;SDS011;57318;56.232;43.944;2022-08-20T12:22:18;49.45;;;6.22;;
69979;SDS011;57318;56.232;43.944;2022-08-20T12:24:44;28.52;;;5.43;;
69979;SDS011;57318;56.232;43.944;2022-08-20T12:27:20;12.65;;;3.13;;
69979;SDS011;57318;56.232;43.944;2022-08-20T12:29:47;8.10;;;3.38;;
69979;SDS011;57318;56.232;43.944;2022-08-20T12:32:16;13.60;;;3.70;;
69979;SDS011;57318;56.232;43.944;2022-08-20T12:34:42;18.85;;;3.55;;
69979;SDS011;57318;56.232;43.944;2022-08-20T12:37:09;13.63;;;3.70;;
69979;SDS011;57318;56.232;43.944;2022-08-20T12:39:37;7.85;;;3.17;;
69979;SDS011;57318;56.232;43.944;2022-08-20T12:42:05;14.93;;;3.63;;
69979;SDS011;57318;56.232;43.944;2022-08-20T12:44:31;13.00;;;3.42;;
69979;SDS011;57318;56.232;43.944;2022-08-20T12:47:20;5.38;;;3.17;;
69979;SDS011;57318;56.232;43.944;2022-08-20T12:49:54;8.05;;;3.50;;
69979;SDS011;57318;56.232;43.944;2022-08-20T12:52:21;4.38;;;2.95;;
69979;SDS011;57318;56.232;43.944;2022-08-20T12:54:49;9.55;;;4.43;;
69979;SDS011;57318;56.232;43.944;2022-08-20T12:57:21;10.25;;;4.45;;
69979;SDS011;57318;56.232;43.944;2022-08-20T12:59:49;14.25;;;4.53;;
69979;SDS011;57318;56.232;43.944;2022-08-20T13:02:14;29.50;;;6.03;;
69979;SDS011;57318;56.232;43.944;2022-08-20T13:04:42;117.30;;;16.05;;
69979;SDS011;57318;56.232;43.944;2022-08-20T13:07:09;42.30;;;6.95;;
69979;SDS011;57318;56.232;43.944;2022-08-20T13:09:37;35.13;;;6.47;;
69979;SDS011;57318;56.232;43.944;2022-08-20T13:12:03;24.60;;;4.75;;
69979;SDS011;57318;56.232;43.944;2022-08-20T13:14:29;9.82;;;4.40;;
69979;SDS011;57318;56.232;43.944;2022-08-20T13:16:58;10.23;;;3.90;;
69979;SDS011;57318;56.232;43.944;2022-08-20T13:19:25;8.90;;;3.58;;
69979;SDS011;57318;56.232;43.944;2022-08-20T13:21:52;15.40;;;3.33;;
69979;SDS011;57318;56.232;43.944;2022-08-20T13:24:19;8.30;;;3.33;;
69979;SDS011;57318;56.232;43.944;2022-08-20T13:26:45;7.72;;;3.28;;
69979;SDS011;57318;56.232;43.944;2022-08-20T13:29:11;7.47;;;3.85;;
69979;SDS011;57318;56.232;43.944;2022-08-20T13:31:37;17.13;;;4.32;;
69979;SDS011;57318;56.232;43.944;2022-08-20T13:34:03;6.68;;;3.40;;
69979;SDS011;57318;56.232;43.944;2022-08-20T13:36:29;8.27;;;3.60;;
69979;SDS011;57318;56.232;43.944;2022-08-20T13:38:55;6.10;;;3.63;;
69979;SDS011;57318;56.232;43.944;2022-08-20T13:41:20;6.78;;;3.60;;
69979;SDS011;57318;56.232;43.944;2022-08-20T13:43:46;7.68;;;3.92;;
69979;SDS011;57318;56.232;43.944;2022-08-20T13:46:12;12.43;;;4.45;;
69979;SDS011;57318;56.232;43.944;2022-08-20T13:48:37;13.25;;;4.45;;
69979;SDS011;57318;56.232;43.944;2022-08-20T13:51:03;5.40;;;3.95;;
69979;SDS011;57318;56.232;43.944;2022-08-20T13:53:28;7.40;;;3.50;;
69979;SDS011;57318;56.232;43.944;2022-08-20T13:55:54;8.63;;;3.97;;
69979;SDS011;57318;56.232;43.944;2022-08-20T13:58:20;7.10;;;4.00;;
69979;SDS011;57318;56.232;43.944;2022-08-20T14:00:47;8.38;;;4.25;;
69979;SDS011;57318;56.232;43.944;2022-08-20T14:03:13;8.85;;;4.05;;
69979;SDS011;57318;56.232;43.944;2022-08-20T14:05:39;5.88;;;4.10;;
69979;SDS011;57318;56.232;43.944;2022-08-20T14:08:09;8.10;;;4.15;;
69979;SDS011;57318;56.232;43.944;2022-08-20T14:10:39;8.50;;;3.70;;
69979;SDS011;57318;56.232;43.944;2022-08-20T14:13:06;13.68;;;4.60;;
69979;SDS011;57318;56.232;43.944;2022-08-20T14:15:35;6.90;;;4.00;;
69979;SDS011;57318;56.232;43.944;2022-08-20T14:18:01;12.02;;;4.60;;
69979;SDS011;57318;56.232;43.944;2022-08-20T14:20:28;7.00;;;4.25;;
69979;SDS011;57318;56.232;43.944;2022-08-20T14:22:56;8.10;;;4.80;;
69979;SDS011;57318;56.232;43.944;2022-08-20T14:25:23;6.30;;;5.03;;
69979;SDS011;57318;56.232;43.944;2022-08-20T14:27:50;9.48;;;5.10;;
69979;SDS011;57318;56.232;43.944;2022-08-20T14:30:25;6.93;;;5.13;;
69979;SDS011;57318;56.232;43.944;2022-08-20T14:32:53;9.20;;;4.55;;
69979;SDS011;57318;56.232;43.944;2022-08-20T14:35:19;8.73;;;4.43;;
69979;SDS011;57318;56.232;43.944;2022-08-20T14:37:46;6.15;;;4.65;;
69979;SDS011;57318;56.232;43.944;2022-08-20T14:40:16;6.93;;;4.55;;
69979;SDS011;57318;56.232;43.944;2022-08-20T14:42:43;10.48;;;4.93;;
69979;SDS011;57318;56.232;43.944;2022-08-20T14:45:10;8.00;;;5.40;;
69979;SDS011;57318;56.232;43.944;2022-08-20T14:47:39;7.47;;;5.70;;
69979;SDS011;57318;56.232;43.944;2022-08-20T14:50:08;11.40;;;5.95;;
69979;SDS011;57318;56.232;43.944;2022-08-20T14:52:35;9.32;;;6.40;;
69979;SDS011;57318;56.232;43.944;2022-08-20T14:55:06;12.00;;;6.38;;
69979;SDS011;57318;56.232;43.944;2022-08-20T14:57:38;11.98;;;6.95;;